createdAt,value
2018-09-19T00:01:22.116Z,96959.58
2018-09-19T00:03:05.601Z,96961.02
2018-09-19T00:04:44.297Z,96963.17
2018-09-19T00:06:20.904Z,96962.27
2018-09-19T00:07:58.735Z,96963.55
2018-09-19T00:09:34.860Z,96963.08
2018-09-19T00:11:10.536Z,96965.55
2018-09-19T00:12:50.779Z,96962.92
2018-09-19T00:14:27.170Z,96963.02
2018-09-19T00:16:02.290Z,96963.24
2018-09-19T00:18:46.739Z,96964.94
2018-09-19T00:20:23.611Z,96970.27
2018-09-19T00:22:02.692Z,96964.34
2018-09-19T00:23:39.385Z,96968.90
2018-09-19T00:25:16.427Z,96970.13
2018-09-19T00:26:51.849Z,96970.13
2018-09-19T00:28:27.839Z,96973.37
2018-09-19T00:30:07.093Z,96970.81
2018-09-19T00:31:46.037Z,96971.14
2018-09-19T00:33:23.093Z,96978.62
2018-09-19T00:35:00.128Z,96984.69
2018-09-19T00:36:35.183Z,96985.66
2018-09-19T00:38:13.522Z,96983.20
2018-09-19T00:39:49.341Z,96983.91
2018-09-19T00:41:26.253Z,96984.51
2018-09-19T00:43:02.154Z,96987.41
2018-09-19T00:44:37.663Z,96987.22
2018-09-19T00:46:12.990Z,96984.19
2018-09-19T00:47:50.130Z,96986.75
2018-09-19T00:49:31.621Z,96982.81
2018-09-19T00:51:08.102Z,96986.48
2018-09-19T00:52:49.649Z,96988.33
2018-09-19T00:54:26.303Z,96991.22
2018-09-19T00:56:03.037Z,96991.03
2018-09-19T00:57:38.186Z,96989.93
2018-09-19T00:59:14.214Z,96994.08
2018-09-19T01:00:49.490Z,96991.17
2018-09-19T01:02:25.160Z,96990.09
2018-09-19T01:04:03.326Z,96994.82
2018-09-19T01:05:38.213Z,96993.47
2018-09-19T01:07:14.779Z,96997.13
2018-09-19T01:08:52.523Z,96994.23
2018-09-19T01:10:30.121Z,96998.04
2018-09-19T01:12:07.883Z,96996.59
2018-09-19T01:13:44.410Z,97006.09
2018-09-19T01:15:20.068Z,97000.72
2018-09-19T01:16:56.099Z,97001.48
2018-09-19T01:18:32.569Z,96996.77
2018-09-19T01:21:23.755Z,96998.44
2018-09-19T01:22:59.807Z,96994.62
2018-09-19T01:24:37.509Z,96992.06
2018-09-19T01:26:20.761Z,96994.39
2018-09-19T01:27:56.146Z,96997.81
2018-09-19T01:29:32.687Z,96993.55
2018-09-19T01:31:08.229Z,96990.96
2018-09-19T01:32:43.649Z,97001.58
2018-09-19T01:34:21.883Z,97002.19
2018-09-19T01:35:56.804Z,97005.25
2018-09-19T01:37:32.089Z,97005.76
2018-09-19T01:39:08.895Z,97010.66
2018-09-19T01:40:44.356Z,97016.33
2018-09-19T01:42:20.812Z,97017.14
2018-09-19T01:43:56.452Z,97012.26
2018-09-19T01:45:31.648Z,97021.47
2018-09-19T01:47:07.478Z,97018.53
2018-09-19T01:48:42.532Z,97027.73
2018-09-19T01:50:19.411Z,97024.08
2018-09-19T01:51:54.876Z,97029.73
2018-09-19T01:53:30.279Z,97030.83
2018-09-19T01:55:05.352Z,97026.41
2018-09-19T01:56:40.885Z,97026.87
2018-09-19T01:58:17.632Z,97021.82
2018-09-19T01:59:54.315Z,97017.23
2018-09-19T02:01:29.311Z,97021.67
2018-09-19T02:03:05.747Z,97027.36
2018-09-19T02:04:40.812Z,97034.23
2018-09-19T02:06:16.997Z,97033.63
2018-09-19T02:07:52.272Z,97029.20
2018-09-19T02:09:27.444Z,97025.38
2018-09-19T02:11:03.412Z,97034.39
2018-09-19T02:12:38.551Z,97030.91
2018-09-19T02:14:14.599Z,97035.64
2018-09-19T02:15:49.689Z,97037.50
2018-09-19T02:17:24.732Z,97028.64
2018-09-19T02:19:01.268Z,97039.60
2018-09-19T02:20:36.424Z,97040.05
2018-09-19T02:22:11.792Z,97036.27
2018-09-19T02:23:47.827Z,97037.02
2018-09-19T02:25:22.643Z,97047.41
2018-09-19T02:26:58.041Z,97039.16
2018-09-19T02:28:33.467Z,97040.69
2018-09-19T02:30:08.772Z,97040.08
2018-09-19T02:31:44.839Z,97036.43
2018-09-19T02:33:20.121Z,97033.53
2018-09-19T02:34:55.456Z,97031.69
2018-09-19T02:36:31.261Z,97033.83
2018-09-19T02:38:06.251Z,97028.63
2018-09-19T02:39:41.280Z,97031.25
2018-09-19T02:41:16.541Z,97020.70
2018-09-19T02:42:51.536Z,97028.48
2018-09-19T02:44:27.110Z,97029.09
2018-09-19T02:46:02.073Z,97029.71
2018-09-19T02:47:37.453Z,97027.42
2018-09-19T02:49:13.050Z,97023.77
2018-09-19T02:50:48.053Z,97023.91
2018-09-19T02:52:23.581Z,97032.78
2018-09-19T02:53:58.732Z,97029.56
2018-09-19T02:55:36.054Z,97027.73
2018-09-19T02:57:12.241Z,97032.16
2018-09-19T02:58:47.160Z,97026.19
2018-09-19T03:00:22.051Z,97025.75
2018-09-19T03:01:59.092Z,97030.31
2018-09-19T03:03:35.945Z,97033.36
2018-09-19T03:05:11.715Z,97032.44
2018-09-19T03:06:47.686Z,97035.97
2018-09-19T03:08:23.336Z,97031.06
2018-09-19T03:09:58.646Z,97031.52
2018-09-19T03:11:33.560Z,97036.13
2018-09-19T03:13:09.100Z,97032.45
2018-09-19T03:14:44.683Z,97029.85
2018-09-19T03:16:20.190Z,97031.06
2018-09-19T03:17:55.765Z,97031.39
2018-09-19T03:19:31.387Z,97026.50
2018-09-19T03:21:07.367Z,97025.72
2018-09-19T03:22:42.693Z,97033.34
2018-09-19T03:24:17.785Z,97019.04
2018-09-19T03:25:52.679Z,97024.98
2018-09-19T03:27:28.059Z,97024.36
2018-09-19T03:29:03.691Z,97024.05
2018-09-19T03:30:40.078Z,97024.52
2018-09-19T03:32:15.017Z,97026.17
2018-09-19T03:33:50.155Z,97013.52
2018-09-19T03:35:26.366Z,97016.89
2018-09-19T03:37:01.797Z,97012.00
2018-09-19T03:38:37.460Z,97017.66
2018-09-19T03:40:12.767Z,97021.14
2018-09-19T03:41:48.104Z,97023.44
2018-09-19T03:43:23.390Z,97025.41
2018-09-19T03:44:59.972Z,97024.64
2018-09-19T03:46:36.189Z,97029.67
2018-09-19T03:48:11.295Z,97034.11
2018-09-19T03:49:46.378Z,97036.22
2018-09-19T03:51:22.324Z,97030.44
2018-09-19T03:52:59.152Z,97034.08
2018-09-19T03:54:34.205Z,97035.91
2018-09-19T03:56:09.155Z,97037.91
2018-09-19T03:57:44.524Z,97042.94
2018-09-19T03:59:19.443Z,97043.97
2018-09-19T04:00:55.267Z,97041.36
2018-09-19T04:02:31.648Z,97047.66
2018-09-19T04:04:06.719Z,97047.20
2018-09-19T04:05:48.730Z,97043.53
2018-09-19T04:07:32.554Z,97042.95
2018-09-19T04:09:18.340Z,97040.06
2018-09-19T04:10:53.572Z,97038.83
2018-09-19T04:12:28.668Z,97038.97
2018-09-19T04:14:03.666Z,97040.20
2018-09-19T04:15:39.149Z,97033.05
2018-09-19T04:17:13.967Z,97034.86
2018-09-19T04:18:48.832Z,97035.48
2018-09-19T04:20:23.689Z,97030.73
2018-09-19T04:21:59.331Z,97037.30
2018-09-19T04:23:34.788Z,97035.14
2018-09-19T04:25:09.635Z,97031.97
2018-09-19T04:26:44.494Z,97030.73
2018-09-19T04:28:19.506Z,97036.83
2018-09-19T04:29:54.374Z,97035.44
2018-09-19T04:31:29.787Z,97036.81
2018-09-19T04:33:09.753Z,97039.27
2018-09-19T04:34:45.744Z,97034.83
2018-09-19T04:36:50.564Z,97036.81
2018-09-19T04:38:25.397Z,97033.94
2018-09-19T04:40:00.720Z,97039.72
2018-09-19T04:41:37.745Z,97041.70
2018-09-19T04:43:12.772Z,97047.64
2018-09-19T04:44:48.778Z,97050.83
2018-09-19T04:46:24.129Z,97054.05
2018-09-19T04:48:00.015Z,97056.32
2018-09-19T04:49:35.557Z,97066.53
2018-09-19T04:51:12.408Z,97067.30
2018-09-19T04:52:47.302Z,97069.28
2018-09-19T04:54:23.054Z,97066.69
2018-09-19T04:55:59.156Z,97065.80
2018-09-19T04:57:36.376Z,97070.83
2018-09-19T04:59:14.113Z,97066.86
2018-09-19T05:00:54.083Z,97070.06
2018-09-19T05:02:29.682Z,97065.78
2018-09-19T05:04:08.192Z,97065.78
2018-09-19T05:05:44.018Z,97073.73
2018-09-19T05:07:24.101Z,97069.14
2018-09-19T05:08:59.202Z,97068.67
2018-09-19T05:10:34.537Z,97059.86
2018-09-19T05:12:09.693Z,97066.08
2018-09-19T05:13:47.435Z,97064.71
2018-09-19T05:15:23.273Z,97059.98
2018-09-19T05:17:00.868Z,97057.69
2018-09-19T05:18:36.280Z,97053.87
2018-09-19T05:20:11.747Z,97047.80
2018-09-19T05:21:46.708Z,97054.52
2018-09-19T05:23:25.330Z,97051.02
2018-09-19T05:25:03.759Z,97051.19
2018-09-19T05:26:38.977Z,97048.45
2018-09-19T05:28:14.169Z,97042.64
2018-09-19T05:29:49.231Z,97054.56
2018-09-19T05:31:24.761Z,97056.23
2018-09-19T05:32:59.776Z,97055.64
2018-09-19T05:34:34.889Z,97055.34
2018-09-19T05:36:10.189Z,97063.27
2018-09-19T05:37:47.303Z,97061.14
2018-09-19T05:39:22.504Z,97065.42
2018-09-19T05:40:59.375Z,97074.59
2018-09-19T05:42:34.755Z,97078.38
2018-09-19T05:44:10.091Z,97080.22
2018-09-19T05:45:47.212Z,97083.45
2018-09-19T05:47:24.553Z,97087.55
2018-09-19T05:48:59.555Z,97082.53
2018-09-19T05:50:41.907Z,97066.81
2018-09-19T05:52:19.199Z,97075.20
2018-09-19T05:53:55.932Z,97075.66
2018-09-19T05:55:32.321Z,97073.34
2018-09-19T05:57:10.237Z,97077.49
2018-09-19T05:58:48.634Z,97079.30
2018-09-19T06:00:24.538Z,97079.63
2018-09-19T06:02:00.201Z,97081.44
2018-09-19T06:03:37.403Z,97079.63
2018-09-19T06:05:12.740Z,97076.27
2018-09-19T06:06:47.740Z,97078.87
2018-09-19T06:08:23.589Z,97079.61
2018-09-19T06:09:59.521Z,97075.03
2018-09-19T06:11:36.682Z,97073.47
2018-09-19T06:13:12.392Z,97073.47
2018-09-19T06:14:47.592Z,97070.38
2018-09-19T06:16:23.415Z,97073.89
2018-09-19T06:17:59.375Z,97080.00
2018-09-19T06:19:37.976Z,97077.87
2018-09-19T06:21:14.633Z,97074.35
2018-09-19T06:22:49.614Z,97079.55
2018-09-19T06:24:25.264Z,97079.81
2018-09-19T06:26:01.793Z,97071.70
2018-09-19T06:27:38.094Z,97078.09
2018-09-19T06:29:13.851Z,97077.77
2018-09-19T06:30:49.536Z,97074.98
2018-09-19T06:32:26.699Z,97073.56
2018-09-19T06:34:02.467Z,97078.27
2018-09-19T06:35:40.230Z,97076.83
2018-09-19T06:37:18.744Z,97076.78
2018-09-19T06:38:54.381Z,97074.16
2018-09-19T06:40:30.059Z,97069.83
2018-09-19T06:42:07.428Z,97071.60
2018-09-19T06:43:42.573Z,97064.47
2018-09-19T06:45:20.840Z,97059.03
2018-09-19T06:46:57.929Z,97056.37
2018-09-19T06:48:32.915Z,97051.67
2018-09-19T06:50:10.617Z,97049.30
2018-09-19T06:51:47.518Z,97046.88
2018-09-19T06:53:22.949Z,97045.69
2018-09-19T06:55:00.711Z,97052.89
2018-09-19T06:56:37.477Z,97053.23
2018-09-19T06:58:12.872Z,97059.52
2018-09-19T06:59:47.994Z,97061.06
2018-09-19T07:01:23.283Z,97060.80
2018-09-19T07:02:58.754Z,97061.33
2018-09-19T07:04:35.361Z,97058.91
2018-09-19T07:06:12.355Z,97064.78
2018-09-19T07:07:48.787Z,97067.59
2018-09-19T07:09:24.959Z,97064.55
2018-09-19T07:10:59.889Z,97064.22
2018-09-19T07:12:34.890Z,97059.92
2018-09-19T07:14:09.889Z,97066.95
2018-09-19T07:15:45.437Z,97066.89
2018-09-19T07:17:22.784Z,97069.30
2018-09-19T07:18:58.241Z,97072.26
2018-09-19T07:20:33.813Z,97073.98
2018-09-19T07:22:11.002Z,97077.00
2018-09-19T07:23:51.102Z,97079.71
2018-09-19T07:25:26.022Z,97074.23
2018-09-19T07:27:04.797Z,97070.56
2018-09-19T07:28:40.859Z,97070.42
2018-09-19T07:30:21.785Z,97067.56
2018-09-19T07:31:56.690Z,97072.77
2018-09-19T07:33:31.881Z,97071.58
2018-09-19T07:35:08.847Z,97075.11
2018-09-19T07:36:47.372Z,97073.50
2018-09-19T07:38:24.482Z,97068.53
2018-09-19T07:40:01.053Z,97069.06
2018-09-19T07:41:40.121Z,97065.42
2018-09-19T07:43:15.410Z,97065.59
2018-09-19T07:44:51.297Z,97066.09
2018-09-19T07:46:35.496Z,97068.99
2018-09-19T07:48:10.998Z,97077.16
2018-09-19T07:49:48.677Z,97075.60
2018-09-19T07:51:24.164Z,97082.97
2018-09-19T07:53:03.675Z,97077.42
2018-09-19T07:54:40.113Z,97075.73
2018-09-19T07:56:15.083Z,97082.30
2018-09-19T07:57:50.329Z,97082.69
2018-09-19T07:59:26.603Z,97090.96
2018-09-19T08:01:03.705Z,97086.04
2018-09-19T08:02:39.111Z,97095.52
2018-09-19T08:04:14.995Z,97099.08
2018-09-19T08:05:49.994Z,97092.75
2018-09-19T08:07:24.937Z,97087.56
2018-09-19T08:09:01.991Z,97080.34
2018-09-19T08:11:46.981Z,97088.80
2018-09-19T08:13:23.574Z,97086.56
2018-09-19T08:15:01.150Z,97086.91
2018-09-19T08:16:40.346Z,97088.78
2018-09-19T08:18:16.413Z,97091.69
2018-09-19T08:19:51.479Z,97095.20
2018-09-19T08:21:27.937Z,97095.79
2018-09-19T08:23:06.042Z,97091.13
2018-09-19T08:24:40.954Z,97093.70
2018-09-19T08:26:16.045Z,97092.91
2018-09-19T08:27:50.956Z,97099.17
2018-09-19T08:29:27.398Z,97098.00
2018-09-19T08:31:03.344Z,97095.93
2018-09-19T08:32:38.609Z,97090.83
2018-09-19T08:34:13.623Z,97090.37
2018-09-19T08:35:51.155Z,97093.19
2018-09-19T08:37:26.516Z,97096.80
2018-09-19T08:39:02.626Z,97089.52
2018-09-19T08:40:37.635Z,97089.39
2018-09-19T08:42:13.121Z,97088.80
2018-09-19T08:43:49.652Z,97091.91
2018-09-19T08:45:27.001Z,97094.30
2018-09-19T08:47:02.657Z,97094.45
2018-09-19T08:48:38.156Z,97086.70
2018-09-19T08:50:13.523Z,97091.06
2018-09-19T08:51:49.247Z,97095.22
2018-09-19T08:53:25.638Z,97098.78
2018-09-19T08:55:03.074Z,97102.22
2018-09-19T08:56:39.456Z,97099.98
2018-09-19T08:58:15.768Z,97110.11
2018-09-19T08:59:52.642Z,97112.28
2018-09-19T09:01:30.834Z,97107.61
2018-09-19T09:03:11.036Z,97112.39
2018-09-19T09:04:48.889Z,97110.13
2018-09-19T09:06:25.831Z,97105.91
2018-09-19T09:08:03.429Z,97108.82
2018-09-19T09:09:39.654Z,97102.44
2018-09-19T09:11:18.492Z,97108.26
2018-09-19T09:12:56.116Z,97110.73
2018-09-19T09:14:32.707Z,97120.33
2018-09-19T09:16:16.579Z,97117.69
2018-09-19T09:17:56.650Z,97116.48
2018-09-19T09:19:33.757Z,97112.17
2018-09-19T09:21:13.931Z,97109.66
2018-09-19T09:22:49.551Z,97101.28
2018-09-19T09:24:24.671Z,97105.59
2018-09-19T09:26:02.270Z,97098.79
2018-09-19T09:27:39.330Z,97090.20
2018-09-19T09:29:14.851Z,97094.80
2018-09-19T09:30:54.283Z,97084.44
2018-09-19T09:32:29.957Z,97087.13
2018-09-19T09:34:07.975Z,97094.72
2018-09-19T09:35:47.999Z,97093.98
2018-09-19T09:37:25.526Z,97095.48
2018-09-19T09:39:00.531Z,97091.86
2018-09-19T09:40:36.114Z,97086.79
2018-09-19T09:42:14.478Z,97084.95
2018-09-19T09:43:52.636Z,97090.19
2018-09-19T09:45:31.455Z,97081.80
2018-09-19T09:47:08.747Z,97083.29
2018-09-19T09:48:45.236Z,97090.20
2018-09-19T09:50:28.979Z,97084.27
2018-09-19T09:52:10.273Z,97080.05
2018-09-19T09:53:47.003Z,97080.36
2018-09-19T09:55:24.476Z,97082.33
2018-09-19T09:56:59.447Z,97089.22
2018-09-19T09:58:35.255Z,97083.13
2018-09-19T10:01:54.938Z,97080.72
2018-09-19T10:03:32.606Z,97084.16
2018-09-19T10:05:12.511Z,97085.08
2018-09-19T10:06:53.212Z,97088.89
2018-09-19T10:08:29.977Z,97081.69
2018-09-19T10:10:08.459Z,97078.76
2018-09-19T10:11:46.629Z,97071.75
2018-09-19T10:13:24.305Z,97075.36
2018-09-19T10:15:00.615Z,97066.08
2018-09-19T10:16:36.072Z,97062.64
2018-09-19T10:18:12.075Z,97062.52
2018-09-19T10:19:49.336Z,97059.50
2018-09-19T10:21:24.274Z,97055.56
2018-09-19T10:22:59.912Z,97056.69
2018-09-19T10:24:37.892Z,97052.36
2018-09-19T10:26:14.241Z,97050.64
2018-09-19T10:27:54.524Z,97047.61
2018-09-19T10:29:34.595Z,97052.37
2018-09-19T10:31:10.254Z,97043.81
2018-09-19T10:32:45.545Z,97047.27
2018-09-19T10:34:22.071Z,97046.10
2018-09-19T10:35:57.363Z,97046.04
2018-09-19T10:38:49.808Z,97054.39
2018-09-19T10:40:28.068Z,97050.00
2018-09-19T10:42:03.489Z,97049.70
2018-09-19T10:47:02.384Z,97044.16
2018-09-19T10:48:41.055Z,97039.67
2018-09-19T10:50:20.342Z,97038.31
2018-09-19T10:52:02.667Z,97014.56
2018-09-19T10:53:40.130Z,97051.98
2018-09-19T10:55:15.858Z,97043.09
2018-09-19T10:56:54.283Z,97046.34
2018-09-19T10:58:35.168Z,97049.66
2018-09-19T11:00:14.754Z,97040.45
2018-09-19T11:03:35.203Z,97044.05
2018-09-19T11:05:11.378Z,97040.73
2018-09-19T11:06:47.541Z,97044.50
2018-09-19T11:08:24.387Z,97042.73
2018-09-19T11:09:59.498Z,97038.84
2018-09-19T11:11:37.240Z,97038.97
2018-09-19T11:13:16.664Z,97044.36
2018-09-19T11:14:52.178Z,97041.91
2018-09-19T11:16:28.677Z,97050.63
2018-09-19T11:18:04.795Z,97041.94
2018-09-19T11:19:41.751Z,97037.31
2018-09-19T11:21:17.675Z,97040.65
2018-09-19T11:22:56.838Z,97042.43
2018-09-19T11:24:33.823Z,97039.70
2018-09-19T11:26:10.205Z,97035.77
2018-09-19T11:27:55.141Z,97041.00
2018-09-19T11:29:31.267Z,97035.14
2018-09-19T11:31:08.867Z,97020.17
2018-09-19T11:32:48.073Z,97029.37
2018-09-19T11:34:32.649Z,97002.76
2018-09-19T11:36:09.802Z,97028.70
2018-09-19T11:37:46.440Z,97013.80
2018-09-19T11:39:24.369Z,97017.52
2018-09-19T11:41:00.966Z,97010.91
2018-09-19T11:42:40.401Z,97021.27
2018-09-19T11:44:16.327Z,97018.91
2018-09-19T11:45:55.758Z,97024.69
2018-09-19T11:47:32.070Z,97013.13
2018-09-19T11:49:08.979Z,97010.66
2018-09-19T11:50:45.668Z,97016.47
2018-09-19T11:52:21.069Z,97010.52
2018-09-19T11:53:56.305Z,97016.07
2018-09-19T11:55:31.338Z,97009.39
2018-09-19T11:57:07.457Z,97004.13
2018-09-19T11:58:47.073Z,97018.88
2018-09-19T12:00:24.126Z,97018.48
2018-09-19T12:01:59.963Z,97012.05
2018-09-19T12:03:48.033Z,97005.62
2018-09-19T12:05:28.044Z,97010.12
2018-09-19T12:07:04.832Z,97011.45
2018-09-19T12:08:40.754Z,97009.02
2018-09-19T12:10:22.782Z,97011.30
2018-09-19T12:11:57.742Z,97013.94
2018-09-19T12:13:33.543Z,97011.68
2018-09-19T12:15:09.095Z,97003.77
2018-09-19T12:16:47.084Z,97010.31
2018-09-19T12:18:25.369Z,97009.36
2018-09-19T12:20:01.257Z,97002.33
2018-09-19T12:21:36.510Z,96996.06
2018-09-19T12:23:15.337Z,96998.73
2018-09-19T12:24:52.488Z,96987.03
2018-09-19T12:26:27.518Z,96990.48
2018-09-19T12:28:03.039Z,96991.98
2018-09-19T12:29:39.199Z,96993.52
2018-09-19T12:31:16.477Z,96991.80
2018-09-19T12:32:52.533Z,96990.63
2018-09-19T12:34:32.029Z,96985.48
2018-09-19T12:36:07.315Z,96995.03
2018-09-19T12:37:42.352Z,96990.02
2018-09-19T12:39:17.661Z,96993.63
2018-09-19T12:40:54.436Z,96987.55
2018-09-19T12:42:31.234Z,96983.73
2018-09-19T12:44:08.785Z,96991.22
2018-09-19T12:45:45.209Z,96995.88
2018-09-19T12:47:20.973Z,96997.20
2018-09-19T12:48:58.925Z,96987.74
2018-09-19T12:50:38.217Z,96995.23
2018-09-19T12:52:15.437Z,96991.34
2018-09-19T12:53:51.307Z,96991.01
2018-09-19T12:55:28.111Z,96990.20
2018-09-19T12:57:04.620Z,96983.63
2018-09-19T12:58:42.546Z,96995.07
2018-09-19T13:00:18.160Z,97002.00
2018-09-19T13:01:56.711Z,96999.31
2018-09-19T13:03:38.331Z,97000.20
2018-09-19T13:05:20.523Z,96996.27
2018-09-19T13:07:03.309Z,96996.18
2018-09-19T13:10:21.915Z,97002.91
2018-09-19T13:11:58.586Z,96994.80
2018-09-19T13:13:38.567Z,96992.61
2018-09-19T13:15:21.003Z,96992.82
2018-09-19T13:17:02.707Z,96999.09
2018-09-19T13:18:42.839Z,96994.77
2018-09-19T13:20:19.898Z,96991.52
2018-09-19T13:22:00.353Z,96990.37
2018-09-19T13:23:43.103Z,96993.19
2018-09-19T13:25:22.881Z,96999.71
2018-09-19T13:27:02.239Z,96994.17
2018-09-19T13:30:30.328Z,96990.30
2018-09-19T13:32:14.752Z,96986.15
2018-09-19T13:33:53.169Z,96979.62
2018-09-19T13:35:35.175Z,96981.16
2018-09-19T13:37:15.447Z,96979.23
2018-09-19T13:38:55.907Z,96985.15
2018-09-19T13:40:34.672Z,96973.27
2018-09-19T13:42:14.088Z,96967.33
2018-09-19T13:43:51.089Z,96967.44
2018-09-19T13:45:26.914Z,96975.48
2018-09-19T13:47:04.502Z,96976.15
2018-09-19T13:48:41.205Z,96974.56
2018-09-19T13:52:42.007Z,96975.31
2018-09-19T13:54:18.769Z,96971.24
2018-09-19T13:55:56.508Z,96972.70
2018-09-19T13:57:33.870Z,96972.44
2018-09-19T13:59:13.074Z,96963.16
2018-09-19T14:00:54.627Z,96968.67
2018-09-19T14:02:30.982Z,96969.66
2018-09-19T14:04:12.250Z,96963.58
2018-09-19T14:05:51.240Z,96959.70
2018-09-19T14:07:30.036Z,96958.14
2018-09-19T14:09:11.487Z,96962.58
2018-09-19T14:11:06.355Z,96955.67
2018-09-19T14:12:45.648Z,96954.40
2018-09-19T14:14:25.944Z,96955.55
2018-09-19T14:16:04.675Z,96947.02
2018-09-19T14:17:43.981Z,96948.58
2018-09-19T14:19:21.792Z,96945.64
2018-09-19T14:20:59.942Z,96935.39
2018-09-19T14:22:36.917Z,96945.16
2018-09-19T14:24:14.797Z,96941.57
2018-09-19T14:25:50.716Z,96951.19
2018-09-19T14:27:28.639Z,96937.81
2018-09-19T14:29:04.708Z,96940.27
2018-09-19T14:30:41.941Z,96944.30
2018-09-19T14:34:08.624Z,96950.37
2018-09-19T14:35:47.777Z,96942.56
2018-09-19T14:37:27.577Z,96946.44
2018-09-19T14:39:10.301Z,96940.93
2018-09-19T14:40:47.676Z,96947.17
2018-09-19T14:42:34.051Z,96936.75
2018-09-19T14:44:13.482Z,96941.91
2018-09-19T14:45:53.454Z,96943.68
2018-09-19T14:47:32.203Z,96943.54
2018-09-19T14:49:12.708Z,96938.66
2018-09-19T14:50:57.291Z,96929.02
2018-09-19T14:52:34.465Z,96919.05
2018-09-19T14:54:12.640Z,96916.62
2018-09-19T14:55:52.206Z,96926.30
2018-09-19T14:57:30.855Z,96926.73
2018-09-19T14:59:07.314Z,96924.48
2018-09-19T15:00:46.940Z,96926.92
2018-09-19T15:02:27.570Z,96930.03
2018-09-19T15:04:05.522Z,96934.27
2018-09-19T15:05:45.937Z,96936.42
2018-09-19T15:07:24.616Z,96936.72
2018-09-19T15:09:04.273Z,96932.67
2018-09-19T15:10:44.695Z,96926.00
2018-09-19T15:12:27.491Z,96920.52
2018-09-19T15:14:04.625Z,96926.91
2018-09-19T15:15:45.076Z,96923.69
2018-09-19T15:17:23.521Z,96921.53
2018-09-19T15:19:02.411Z,96920.85
2018-09-19T15:20:50.033Z,96924.20
2018-09-19T15:22:32.807Z,96921.95
2018-09-19T15:24:22.667Z,96924.54
2018-09-19T15:26:03.850Z,96921.53
2018-09-19T15:27:47.420Z,96925.91
2018-09-19T15:29:26.596Z,96923.55
2018-09-19T15:31:27.848Z,96928.13
2018-09-19T15:33:15.450Z,96926.50
2018-09-19T15:35:09.423Z,96923.38
2018-09-19T15:36:49.714Z,96930.09
2018-09-19T15:38:28.574Z,96923.25
2018-09-19T15:40:06.497Z,96934.59
2018-09-19T15:41:46.633Z,96929.30
2018-09-19T15:43:52.533Z,96923.45
2018-09-19T15:45:29.166Z,96934.69
2018-09-19T15:47:05.132Z,96927.94
2018-09-19T15:48:42.004Z,96931.32
2018-09-19T16:38:40.374Z,96929.47
2018-09-19T16:40:17.774Z,96937.36
2018-09-19T16:41:53.579Z,96930.30
2018-09-19T16:43:31.065Z,96931.26
2018-09-19T16:45:15.285Z,96941.19
2018-09-19T16:46:54.422Z,96942.21
2018-09-19T16:48:32.217Z,96943.72
2018-09-19T16:50:12.888Z,96948.48
2018-09-19T16:51:54.320Z,96940.38
2018-09-19T16:53:35.539Z,96945.76
2018-09-19T16:55:11.886Z,96945.09
2018-09-19T16:56:50.153Z,96944.98
2018-09-19T16:58:29.529Z,96952.05
2018-09-19T17:00:09.706Z,96950.66
2018-09-19T17:01:49.916Z,96957.95
2018-09-19T17:03:29.915Z,96957.20
2018-09-19T17:05:16.298Z,96952.48
2018-09-19T17:08:47.117Z,96947.75
2018-09-19T17:10:30.119Z,96946.47
2018-09-19T17:12:07.492Z,96940.70
2018-09-19T17:13:45.714Z,96945.75
2018-09-19T17:15:23.586Z,96945.72
2018-09-19T17:17:02.398Z,96948.17
2018-09-19T17:18:39.779Z,96952.36
2018-09-19T17:20:18.640Z,96956.55
2018-09-19T17:21:56.307Z,96955.44
2018-09-19T17:23:33.731Z,96958.76
2018-09-19T17:25:13.421Z,96962.27
2018-09-19T17:26:48.637Z,96956.02
2018-09-19T17:28:26.386Z,96964.34
2018-09-19T17:30:01.719Z,96961.19
2018-09-19T17:31:41.038Z,96968.05
2018-09-19T17:33:20.601Z,96964.48
2018-09-19T17:34:59.505Z,96971.27
2018-09-19T17:36:36.963Z,96972.22
2018-09-19T17:38:14.844Z,96970.88
2018-09-19T17:39:51.974Z,96970.94
2018-09-19T17:41:30.321Z,96973.47
2018-09-19T17:43:10.744Z,96979.48
2018-09-19T17:44:51.732Z,96978.44
2018-09-19T17:46:31.234Z,96979.84
2018-09-19T17:48:09.104Z,96980.42
2018-09-19T17:49:45.052Z,96987.19
2018-09-19T17:51:22.172Z,96983.48
2018-09-19T17:53:03.497Z,96983.66
2018-09-19T17:54:44.145Z,96989.20
2018-09-19T17:56:22.112Z,96983.50
2018-09-19T17:57:58.350Z,96988.52
2018-09-19T17:59:35.628Z,96986.48
2018-09-19T18:01:16.096Z,96989.18
2018-09-19T18:02:52.392Z,96996.73
2018-09-19T18:04:29.398Z,97001.82
2018-09-19T18:06:04.920Z,96993.91
2018-09-19T18:07:54.909Z,96993.83
2018-09-19T18:09:40.713Z,96997.00
2018-09-19T18:11:31.614Z,97001.79
2018-09-19T18:13:09.614Z,97003.42
2018-09-19T18:14:46.178Z,97002.91
2018-09-19T18:16:26.926Z,97008.94
2018-09-19T18:18:05.796Z,97004.81
2018-09-19T18:19:41.954Z,97005.27
2018-09-19T18:21:17.836Z,97012.08
2018-09-19T18:22:54.123Z,97016.98
2018-09-19T18:24:30.415Z,97014.19
2018-09-19T18:26:06.691Z,97015.25
2018-09-19T18:27:44.643Z,97023.36
2018-09-19T18:29:20.981Z,97024.14
2018-09-19T18:30:56.654Z,97026.31
2018-09-19T18:32:36.123Z,97029.11
2018-09-19T18:34:16.288Z,97036.91
2018-09-19T18:35:51.619Z,97033.28
2018-09-19T18:37:38.935Z,97039.16
2018-09-19T18:39:19.179Z,97036.44
2018-09-19T18:41:03.021Z,97039.75
2018-09-19T18:42:42.190Z,97038.80
2018-09-19T18:44:17.902Z,97039.92
2018-09-19T18:45:55.294Z,97036.15
2018-09-19T18:47:31.567Z,97048.34
2018-09-19T18:49:15.040Z,97050.17
2018-09-19T18:50:52.173Z,97046.59
2018-09-19T18:52:32.064Z,97056.56
2018-09-19T18:54:12.459Z,97052.66
2018-09-19T18:57:37.897Z,97060.61
2018-09-19T18:59:17.787Z,97061.50
2018-09-19T19:00:59.918Z,97064.70
2018-09-19T19:02:38.750Z,97058.52
2018-09-19T19:04:19.603Z,97063.48
2018-09-19T19:06:02.176Z,97063.14
2018-09-19T19:07:39.963Z,97069.21
2018-09-19T19:09:20.480Z,97066.33
2018-09-19T19:10:57.070Z,97065.70
2018-09-19T19:14:40.467Z,97072.28
2018-09-19T19:16:19.347Z,97074.95
2018-09-19T19:18:01.105Z,97067.98
2018-09-19T19:19:37.662Z,97074.81
2018-09-19T19:21:16.778Z,97074.81
2018-09-19T19:22:56.367Z,97081.52
2018-09-19T19:24:32.756Z,97078.72
2018-09-19T19:26:12.546Z,97083.10
2018-09-19T19:27:49.935Z,97079.78
2018-09-19T19:29:27.837Z,97088.48
2018-09-19T19:31:09.902Z,97086.09
2018-09-19T19:32:48.552Z,97090.50
2018-09-19T19:34:27.084Z,97086.83
2018-09-19T19:36:05.596Z,97087.95
2018-09-19T19:37:41.933Z,97086.17
2018-09-19T19:39:19.077Z,97087.03
2018-09-19T19:40:55.961Z,97091.66
2018-09-19T19:42:32.683Z,97095.69
2018-09-19T19:44:10.677Z,97092.81
2018-09-19T19:45:46.968Z,97096.45
2018-09-19T19:47:22.713Z,97090.27
2018-09-19T19:50:53.521Z,97096.80
2018-09-19T19:52:29.899Z,97097.75
2018-09-19T19:54:09.912Z,97099.80
2018-09-19T19:55:50.484Z,97103.29
2018-09-19T19:57:29.868Z,97108.27
2018-09-19T19:59:07.509Z,97114.69
2018-09-19T20:00:45.239Z,97106.38
2018-09-19T20:02:23.008Z,97114.69
2018-09-19T20:03:59.288Z,97120.23
2018-09-19T20:05:38.541Z,97116.36
2018-09-19T20:07:16.762Z,97113.34
2018-09-19T20:08:54.092Z,97116.70
2018-09-19T20:10:34.986Z,97116.90
2018-09-19T20:12:10.902Z,97120.59
2018-09-19T20:13:47.836Z,97124.19
2018-09-19T20:15:25.051Z,97123.50
2018-09-19T20:17:06.082Z,97122.61
2018-09-19T20:18:43.851Z,97122.09
2018-09-19T20:20:22.707Z,97118.91
2018-09-19T20:22:03.163Z,97124.16